San Antonio, TX (78201)

1:29 PM CDT on July 25, 2016 (GMT -0500)
Dellview | | Change Station

Elev 823 ft 29.50 °N, 98.54 °W | Updated 20 seconds ago

Scattered Clouds
Scattered Clouds
92.7 °F
Feels Like 94 °F
N
0.9
Wind Variable Wind from ENE
Gusts 2.5 mph

Today
High -- | Low -- °F
--% Chance of Precip.
Yesterday
High -- | Low -- °F
Precip. -- in
Pressure 29.91 in
Visibility 10.0 miles
Clouds Few 4500 ft
Scattered Clouds 25000 ft
Heat Index 94 °F
Dew Point 64 °F
Humidity 39%
Rainfall 0.00 in
Snow Depth Not available.
6:50 AM 8:30 PM
Waning Gibbous, 63% visible
METAR KSAT 251751Z COR 19004KT 10SM FEW045 SCT250 33/21 A2997 RMK SLP127 T03330206 10333 20256 56012
Pressure 29.91 in
Visibility 10.0 miles
Clouds Few 4500 ft
Scattered Clouds 25000 ft
Heat Index 94 °F
Dew Point 64 °F
Humidity 39%
Rainfall 0.00 in
Snow Depth Not available.
6:50 AM 8:30 PM
Waning Gibbous, 63% visible
METAR KSAT 251751Z COR 19004KT 10SM FEW045 SCT250 33/21 A2997 RMK SLP127 T03330206 10333 20256 56012

10-Day Weather Forecast

Almanac

Astronomy

Jul. 25, 2016 Rise Set
Actual Time
Civil Twilight
Nautical Twilight
Astronomical Twilight
Moon
Length of Visible Light
Length of Day
Tomorrow will be .
, % of the Moon is Illuminated

Today's Extremes

State Highs State Lows

Community

WunderPhotos

Upload Photos

1,927,365 photos uploaded!

WunderBlog® & News

Nearby

Air Quality

  Air Quality AQ Index Pollutant
Not available.

Snow Depth

Station Depth Elevation

Earthquake Activity

City Distance Mag. Time & Date
Minimum magnitude displayed is 2.5.

Coastal Water Temperatures

Place Temperature

Stations

Nearby Weather Stations

Station Location Temp. Windchill Dew Point Humidity Wind Precip. Elev Updated Type
                   

Watches & Warnings

There are currently no watches in effect.